Flight Track Log - Related Links

Times and Time Zones

All times are in EDT time to prevent confusion due to time zone crossing. See the EGF4174 flight status page for this flight to view local times or setup timezone preferences in your user account.

Time Position Orientation Groundspeed Altitude Reporting Facility
EDT Latitude Longitude Course Direction KTS MPH feet Rate Location/Type
Thu 05:06:31 PM 43.1072 -76.1433 286° West 164 189 1,300  Level Boston Center
Thu 05:07:19 PM 43.1072 -76.2031 270° West 179 206 3,100 2,202 Climbing Boston Center
Thu 05:08:00 PM 43.1833 -76.4229 270° West  Level FlightAware Approximate
Thu 05:08:20 PM 43.1047 -76.2853 268° West 225 259 5,300  Level Boston Center
Thu 05:09:00 PM 43.2040 -76.5280 281° West  Level FlightAware Approximate
Thu 05:10:00 PM 43.2222 -76.6425 286° West  Level FlightAware Approximate
Thu 05:10:26 PM 43.1042 -76.4739 270° West 253 291 10,000  Level Cleveland Center
Thu 05:11:00 PM 43.2464 -76.7551 286° West  Level FlightAware Approximate
Thu 05:11:26 PM 43.1100 -76.5758 275° West 258 297 11,700  Level Cleveland Center
Thu 05:12:26 PM 43.1117 -76.6897 271° West 281 323 12,900 1,250 Climbing Cleveland Center
Thu 05:13:26 PM 43.1136 -76.8119 271° West 306 352 14,200 1,350 Climbing Cleveland Center
Thu 05:14:26 PM 43.1175 -76.9367 272° West 325 374 15,600 1,600 Climbing Cleveland Center
Thu 05:15:26 PM 43.1194 -77.0617 271° West 330 380 17,400 1,750 Climbing Cleveland Center
Thu 05:16:26 PM 43.1231 -77.1839 272° West 330 380 19,100 1,700 Climbing Cleveland Center
Thu 05:17:26 PM 43.1264 -77.3006 272° West 325 374 20,800 1,750 Climbing Cleveland Center
Thu 05:18:26 PM 43.1278 -77.4200 271° West 325 374 22,600 1,100 Climbing Cleveland Center
Thu 05:19:26 PM 43.1289 -77.5422 271° West 325 374 23,000 200 Climbing Cleveland Center
Thu 05:20:26 PM 43.1322 -77.6728 272° West 332 382 23,000 400 Level Cleveland Center
Thu 05:21:26 PM 43.1361 -77.8264 272° West 359 413 23,800 1,000 Climbing Cleveland Center
Thu 05:22:26 PM 43.1392 -77.9628 272° West 364 419 25,000 1,150 Climbing Cleveland Center
Thu 05:23:26 PM 43.1400 -78.0936 271° West 359 413 26,100 1,200 Climbing Cleveland Center
Thu 05:24:26 PM 43.1406 -78.2272 270° West 359 413 27,400 1,350 Climbing Cleveland Center
Thu 05:25:26 PM 43.1431 -78.3525 272° West 347 399 28,800 1,400 Climbing Cleveland Center
Thu 05:26:26 PM 43.1411 -78.4719 269° West 335 386 30,200 1,450 Climbing Cleveland Center
Thu 05:27:26 PM 43.1392 -78.5917 269° West 324 373 31,700 1,400 Climbing Cleveland Center
Thu 05:28:26 PM 43.1328 -78.7086 266° West 319 367 33,000 1,200 Climbing Cleveland Center
Thu 05:29:26 PM 43.1303 -78.8222 268° West 313 360 34,100 1,027 Climbing Cleveland Center
Thu 05:30:17 PM 43.1167 -78.9000 257° West 300 345 34,900 865 Climbing Toronto Center
Thu 05:31:17 PM 43.1167 -79.0167 270° West 300 345 35,700 550 Climbing Toronto Center
Thu 05:32:17 PM 43.1167 -79.1333 270° West 310 357 36,000 150 Climbing Toronto Center
Thu 05:33:17 PM 43.1000 -79.2667 260° West 330 380 36,000  Level Toronto Center
Thu 05:34:17 PM 43.1000 -79.4000 270° West 350 403 36,000  Level Toronto Center
Thu 05:35:17 PM 43.1000 -79.5500 270° West 370 426 36,000  Level Toronto Center
Thu 05:36:17 PM 43.1000 -79.6833 270° West 380 437 36,000  Level Toronto Center
Thu 05:37:17 PM 43.0833 -79.8333 261° West 390 449 36,000  Level Toronto Center
Thu 05:38:17 PM 43.0833 -79.9833 270° West 390 449 36,000  Level Toronto Center
Thu 05:39:17 PM 43.0833 -80.1333 270° West 390 449 36,000  Level Toronto Center
Thu 05:40:17 PM 43.0667 -80.2667 260° West 390 449 36,000  Level Toronto Center
Thu 05:41:17 PM 43.0667 -80.4333 270° West 390 449 36,000  Level Toronto Center
Thu 05:42:17 PM 43.0500 -80.5833 261° West 390 449 36,000  Level Toronto Center
Thu 05:43:17 PM 43.0500 -80.7333 270° West 390 449 36,000  Level Toronto Center
Thu 05:44:17 PM 43.0333 -80.8667 260° West 390 449 36,000  Level Toronto Center
Thu 05:45:17 PM 43.0333 -81.0167 270° West 390 449 36,000  Level Toronto Center
Thu 05:46:17 PM 43.0167 -81.1667 261° West 380 437 36,000  Level Toronto Center
Thu 05:47:17 PM 43.0167 -81.3167 270° West 380 437 36,000  Level Toronto Center
Thu 05:48:17 PM 43.0167 -81.4500 270° West 380 437 36,000  Level Toronto Center
Thu 05:49:17 PM 43.0167 -81.6167 270° West 380 437 36,000  Level Toronto Center
Thu 05:50:17 PM 43.0167 -81.7500 270° West 390 449 36,000  Level Toronto Center
Thu 05:51:17 PM 43.0167 -81.8833 270° West 390 449 36,000  Level Toronto Center
Thu 05:52:17 PM 43.0000 -82.0500 262° West 390 449 36,000  Level Toronto Center
Thu 05:53:17 PM 43.0000 -82.1833 270° West 390 449 36,000  Level Toronto Center
Thu 05:54:17 PM 43.0000 -82.3500 270° West 390 449 36,000  Level Toronto Center
Thu 05:55:17 PM 43.0000 -82.4833 270° West 390 449 36,000  Level Toronto Center
Thu 05:56:27 PM 43.0022 -82.6583 271° West 393 452 36,000  Level Cleveland Center
Thu 05:57:27 PM 42.9994 -82.8031 269° West 393 452 36,000 -350 Level Cleveland Center
Thu 05:58:27 PM 42.9944 -82.9478 267° West 393 452 35,300 -850 Descending Cleveland Center
Thu 05:59:27 PM 42.9892 -83.0981 267° West 387 445 34,300 -500 Descending Cleveland Center
Thu 06:01:27 PM 42.9783 -83.3956 267° West 387 445 33,800 -600 Descending Cleveland Center
Thu 06:02:27 PM 42.9742 -83.5600 268° West 399 459 32,500 -900 Descending Cleveland Center
Thu 06:03:27 PM 42.9681 -83.7072 267° West 399 459 32,000 -250 Descending Cleveland Center
Thu 06:04:27 PM 42.9578 -83.8514 264° West 399 459 32,000  Level Cleveland Center
Thu 06:05:27 PM 42.9414 -83.9925 261° West 394 453 32,000  Level Cleveland Center
Thu 06:06:27 PM 42.9286 -84.1392 263° West 394 453 32,000  Level Cleveland Center
Thu 06:07:27 PM 42.9133 -84.2858 262° West 394 453 32,000  Level Cleveland Center
Thu 06:09:07 PM 42.8886 -84.5356 262° West 396 456 32,000  Level Chicago Center
Thu 06:10:09 PM 42.8742 -84.6844 263° West 398 458 32,000  Level Chicago Center
Thu 06:11:11 PM 42.8583 -84.8339 262° West 399 459 32,000  Level Chicago Center
Thu 06:12:13 PM 42.8433 -84.9822 262° West 395 455 32,000 -145 Level Chicago Center
Thu 06:13:15 PM 42.8275 -85.1292 262° West 393 452 31,700 -871 Descending Chicago Center
Thu 06:14:17 PM 42.8114 -85.2761 262° West 392 451 30,200 -1,597 Descending Chicago Center
Thu 06:15:19 PM 42.7956 -85.4219 262° West 391 450 28,400 -1,920 Descending Chicago Center
Thu 06:16:22 PM 42.7689 -85.6028 259° West 405 466 26,200 -2,016 Descending Chicago Center
Thu 06:17:24 PM 42.7414 -85.7553 256° West 411 473 24,200 -1,935 Descending Chicago Center
Thu 06:18:26 PM 42.7142 -85.9017 256° West 400 460 22,200 -1,645 Descending Chicago Center
Thu 06:19:28 PM 42.6894 -86.0419 257° West 383 441 20,800 -1,065 Descending Chicago Center
Thu 06:20:30 PM 42.6639 -86.1761 256° West 369 425 20,000 -677 Descending Chicago Center
Thu 06:21:32 PM 42.6400 -86.3097 256° West 365 420 19,400 -1,113 Descending Chicago Center
Thu 06:22:34 PM 42.6136 -86.4394 255° West 359 413 17,700 -1,742 Descending Chicago Center
Thu 06:23:36 PM 42.5847 -86.5989 256° West 361 415 15,800 -1,790 Descending Chicago Center
Thu 06:24:38 PM 42.5617 -86.7256 256° West 349 402 14,000 -1,742 Descending Chicago Center
Thu 06:25:40 PM 42.5306 -86.8464 251° West 341 392 12,200 -1,694 Descending Chicago Center
Thu 06:26:42 PM 42.4981 -86.9639 249° West 335 386 10,500 -1,113 Descending Chicago Center
Thu 06:27:44 PM 42.4681 -87.0669 248° West 294 338 9,900 -774 Descending Chicago Center
Thu 06:28:46 PM 42.4444 -87.1547 250° West 254 292 8,900 -1,056 Descending Chicago Center
Thu 06:29:49 PM 42.3864 -87.2333 225° Southwest 264 304 7,700 -1,056 Descending Chicago Center
Thu 06:30:51 PM 42.3247 -87.2869 213° Southwest 264 304 6,700 -823 Descending Chicago Center
Thu 06:31:53 PM 42.2608 -87.3467 215° Southwest 259 298 6,000 -339 Descending Chicago Center
Thu 06:32:55 PM 42.2022 -87.4014 215° Southwest 257 296 6,000 -48 Level Chicago Center
Thu 06:33:57 PM 42.1431 -87.4564 215° Southwest 259 298 5,900 -532 Descending Chicago Center
Thu 06:34:59 PM 42.0931 -87.5133 220° Southwest 242 278 4,900 -871 Descending Chicago Center
Thu 06:36:01 PM 42.0489 -87.5775 227° Southwest 239 275 4,100 -435 Descending Chicago Center
Thu 06:37:03 PM 42.0097 -87.6486 233° Southwest 215 247 4,000 -231 Descending Chicago Center
Thu 06:38:11 PM 42.0000 -87.7333 261° West 208 239 3,600 -353 Descending Chicago TRACON

Login

Don't have an account? Register now (free) for customized features, flight alerts, and more!